Aurora Springs, Missouri
Current Conditions -  °F | °C
As of 2:55 AM on Saturday 22 Nov 2014 (Local Time) from KAIZ Reporting Station
Overcast Overcast  
Wind Chill: 50°   Ceiling: 3000
Heat Index: 50°   Visibility: 10mi
Dew Point: 43°   Wind: 8mph
Humidity: 76%   Direction: 180°S
Pressure: 30.11"   Gusts: NA
Location:  38.333°N, 92.5524°W
Report Text: KAIZ 220855Z AUTO 18007KT 10SM OVC030 10/06 A3011 RMK AO1 57014
Loading
Personal Weather Stations






























Interactive Weather Map New forecast layout! Learn more

10-Day Weather Forecast

Advertisements
Track Severe Weather on mobile